Aviation Digital Data Service (ADDS)

Output produced by METARs form (0417 UTC 19 August 2019)
found at http://www.aviationweather.gov/metar/data/
 
Forecast for: VLLB (LUANG-PRABANG , LA)
Text: TAF VLLB 182300Z 1900/1924 22004KT 9999 SCT017 SCT060 BKN080
Forecast period: 0000 UTC 19 August 2019 to 0000 UTC 20 August 2019
Forecast type: FROM: standard forecast or significant change
Winds: from the SW (220 degrees) at 5 MPH (4 knots; 2.1 m/s)
Visibility: 6 or more miles 10+ km)
Ceiling: 8000 feet AGL
Clouds: scattered clouds at 1700 feet AGL
scattered clouds at 6000 feet AGL
broken clouds at 8000 feet AGL
Weather: no significant weather forecast for this period